createdAt,value
2016-11-13T00:00:58.643Z,2.58
2016-11-13T00:02:07.892Z,2.4
2016-11-13T00:03:16.498Z,2.48
2016-11-13T00:04:25.761Z,2.45
2016-11-13T00:05:34.378Z,2.58
2016-11-13T00:06:43.364Z,2.17
2016-11-13T00:07:52.632Z,2.39
2016-11-13T00:09:01.888Z,2.55
2016-11-13T00:10:11.153Z,2.51
2016-11-13T00:11:20.081Z,2.61
2016-11-13T00:12:29.390Z,2.36
2016-11-13T00:13:38.975Z,2.43
2016-11-13T00:14:47.587Z,2.37
2016-11-13T00:15:56.841Z,2.53
2016-11-13T00:17:05.453Z,2.5
2016-11-13T00:18:14.159Z,2.57
2016-11-13T00:19:23.414Z,2.66
2016-11-13T00:20:33.044Z,2.6
2016-11-13T00:21:41.651Z,2.65
2016-11-13T00:22:50.922Z,2.66
2016-11-13T00:23:59.904Z,2.76
2016-11-13T00:25:08.520Z,2.47
2016-11-13T00:26:17.444Z,2.54
2016-11-13T00:27:26.372Z,2.55
2016-11-13T00:28:35.309Z,2.5
2016-11-13T00:29:44.333Z,2.42
2016-11-13T00:30:53.268Z,2.1
2016-11-13T00:32:02.857Z,2.43
2016-11-13T00:33:11.785Z,2.54
2016-11-13T00:34:20.398Z,2.61
2016-11-13T00:35:29.626Z,2.66
2016-11-13T00:36:38.249Z,2.68
2016-11-13T00:37:46.848Z,2.79
2016-11-13T00:38:55.473Z,2.71
2016-11-13T00:40:04.405Z,2.73
2016-11-13T00:41:13.364Z,2.36
2016-11-13T00:42:21.970Z,2.54
2016-11-13T00:43:30.907Z,2.6
2016-11-13T00:44:39.826Z,2.47
2016-11-13T00:45:48.755Z,2.57
2016-11-13T00:46:57.726Z,2.6
2016-11-13T00:48:06.644Z,2.55
2016-11-13T00:49:15.575Z,2.35
2016-11-13T00:50:24.198Z,2.18
2016-11-13T00:51:33.157Z,2.35
2016-11-13T00:52:42.804Z,2.3
2016-11-13T00:53:51.423Z,2.68
2016-11-13T00:55:00.687Z,2.54
2016-11-13T00:56:09.295Z,2.66
2016-11-13T00:57:18.548Z,2.75
2016-11-13T00:58:27.281Z,2.71
2016-11-13T00:59:36.530Z,2.78
2016-11-13T01:00:45.792Z,2.28
2016-11-13T01:01:54.407Z,2.6
2016-11-13T01:03:03.057Z,2.43
2016-11-13T01:04:12.451Z,2.28
2016-11-13T01:05:21.377Z,2.18
2016-11-13T01:06:29.992Z,2.5
2016-11-13T01:07:38.598Z,2.68
2016-11-13T01:08:48.176Z,2.72
2016-11-13T01:09:57.134Z,2.63
2016-11-13T01:11:06.066Z,2.3
2016-11-13T01:12:15.002Z,2.28
2016-11-13T01:13:23.603Z,2.36
2016-11-13T01:14:32.856Z,2.47
2016-11-13T01:15:42.495Z,2.58
2016-11-13T01:16:51.752Z,2.61
2016-11-13T01:18:00.718Z,2.58
2016-11-13T01:19:09.654Z,2.33
2016-11-13T01:20:18.947Z,2.5
2016-11-13T01:21:27.642Z,2.32
2016-11-13T01:22:36.899Z,2.45
2016-11-13T01:23:45.512Z,2.3
2016-11-13T01:24:54.447Z,2.58
2016-11-13T01:26:03.375Z,2.39
2016-11-13T01:27:12.327Z,2.3
2016-11-13T01:28:21.615Z,2.3
2016-11-13T01:29:30.557Z,2.17
2016-11-13T01:30:39.164Z,2.43
2016-11-13T01:31:48.099Z,2.51
2016-11-13T01:32:57.687Z,2.36
2016-11-13T01:34:06.618Z,2.36
2016-11-13T01:35:15.219Z,2.4
2016-11-13T01:36:24.472Z,2.5
2016-11-13T01:37:33.085Z,2.45
2016-11-13T01:38:42.057Z,2.48
2016-11-13T01:39:50.985Z,2.5
2016-11-13T01:40:59.911Z,2.37
2016-11-13T01:42:08.519Z,2.54
2016-11-13T01:43:17.459Z,2.58
2016-11-13T01:44:26.442Z,2.65
2016-11-13T01:45:35.375Z,2.61
2016-11-13T01:46:43.986Z,2.47
2016-11-13T01:47:52.926Z,2.18
2016-11-13T01:49:01.538Z,2.3
2016-11-13T01:50:10.570Z,2.35
2016-11-13T01:51:19.509Z,2.51
2016-11-13T01:52:28.437Z,2.51
2016-11-13T01:53:37.376Z,2.58
2016-11-13T01:54:45.994Z,2.51
2016-11-13T01:55:54.983Z,2.5
2016-11-13T01:57:03.940Z,2.69
2016-11-13T01:58:12.552Z,2.55
2016-11-13T01:59:21.160Z,2.53
2016-11-13T02:00:30.456Z,2.57
2016-11-13T02:01:42.625Z,2.45
2016-11-13T02:02:51.238Z,2.72
2016-11-13T02:04:00.168Z,2.87
2016-11-13T02:05:08.769Z,2.68
2016-11-13T02:06:18.038Z,2.12
2016-11-13T02:07:27.036Z,2.1
2016-11-13T02:08:35.970Z,2
2016-11-13T02:09:44.933Z,2.07
2016-11-13T02:10:54.182Z,2.33
2016-11-13T02:12:03.112Z,2.47
2016-11-13T02:13:12.441Z,2.33
2016-11-13T02:14:21.376Z,2.5
2016-11-13T02:15:30.307Z,2.33
2016-11-13T02:16:39.241Z,2.06
2016-11-13T02:17:48.180Z,2.12
2016-11-13T02:18:57.575Z,2.14
2016-11-13T02:20:06.172Z,2
2016-11-13T02:21:15.412Z,2.18
2016-11-13T02:22:24.384Z,2.17
2016-11-13T02:23:32.996Z,2.1
2016-11-13T02:24:42.707Z,2.36
2016-11-13T02:25:51.948Z,2.51
2016-11-13T02:27:00.557Z,2.35
2016-11-13T02:28:10.463Z,2.43
2016-11-13T02:29:19.420Z,2.04
2016-11-13T02:30:29.024Z,1.92
2016-11-13T02:31:37.969Z,2.15
2016-11-13T02:32:46.579Z,2.1
2016-11-13T02:33:55.185Z,2.28
2016-11-13T02:35:03.798Z,2.28
2016-11-13T02:36:12.780Z,2.4
2016-11-13T02:37:21.379Z,2.06
2016-11-13T02:38:30.314Z,2.03
2016-11-13T02:39:39.574Z,2.32
2016-11-13T02:40:48.177Z,2.29
2016-11-13T02:41:56.863Z,1.99
2016-11-13T02:43:05.483Z,2.03
2016-11-13T02:44:14.078Z,2.18
2016-11-13T02:45:22.682Z,2.3
2016-11-13T02:46:31.613Z,2.19
2016-11-13T02:47:40.626Z,2.35
2016-11-13T02:48:49.572Z,2.32
2016-11-13T02:49:58.513Z,2.54
2016-11-13T02:51:07.773Z,2.07
2016-11-13T02:52:16.373Z,2.37
2016-11-13T02:53:25.662Z,2.06
2016-11-13T02:54:34.630Z,2.33
2016-11-13T02:55:43.564Z,2.19
2016-11-13T02:56:52.828Z,2.35
2016-11-13T02:58:02.427Z,2.32
2016-11-13T02:59:13.054Z,2
2016-11-13T03:00:21.670Z,2
2016-11-13T03:01:30.604Z,2
2016-11-13T03:02:39.225Z,2.1
2016-11-13T03:03:48.158Z,2.18
2016-11-13T03:04:57.459Z,2.18
2016-11-13T03:06:06.107Z,2.29
2016-11-13T03:07:15.075Z,2.15
2016-11-13T03:08:24.013Z,2.12
2016-11-13T03:09:32.965Z,2.15
2016-11-13T03:10:42.282Z,2.15
2016-11-13T03:11:51.258Z,2.1
2016-11-13T03:13:00.202Z,2.22
2016-11-13T03:14:09.141Z,2.11
2016-11-13T03:15:17.763Z,2.3
2016-11-13T03:16:26.726Z,2.3
2016-11-13T03:17:35.339Z,2.29
2016-11-13T03:18:44.280Z,2.1
2016-11-13T03:19:53.534Z,1.93
2016-11-13T03:21:02.791Z,2.01
2016-11-13T03:22:11.704Z,1.95
2016-11-13T03:23:20.646Z,2.06
2016-11-13T03:24:29.629Z,2.33
2016-11-13T03:25:38.245Z,2.1
2016-11-13T03:26:47.176Z,2.18
2016-11-13T03:27:56.546Z,1.95
2016-11-13T03:29:05.500Z,1.89
2016-11-13T03:30:14.114Z,2.22
2016-11-13T03:31:23.055Z,2.12
2016-11-13T03:32:31.996Z,2.29
2016-11-13T03:33:40.995Z,2.19
2016-11-13T03:34:49.935Z,2.01
2016-11-13T03:35:58.874Z,1.89
2016-11-13T03:37:07.489Z,1.91
2016-11-13T03:38:16.138Z,2.04
2016-11-13T03:39:24.855Z,1.85
2016-11-13T03:40:33.791Z,1.82
2016-11-13T03:41:42.402Z,2.12
2016-11-13T03:42:51.350Z,2.19
2016-11-13T03:43:59.966Z,2.47
2016-11-13T03:45:09.279Z,2.12
2016-11-13T03:46:18.868Z,2.19
2016-11-13T03:47:27.804Z,2.19
2016-11-13T03:48:37.062Z,2.22
2016-11-13T03:49:46.007Z,2
2016-11-13T03:50:55.326Z,2.07
2016-11-13T03:52:04.268Z,2.32
2016-11-13T03:53:12.883Z,2.1
2016-11-13T03:54:21.812Z,2.07
2016-11-13T03:55:30.757Z,2.32
2016-11-13T03:56:39.682Z,1.89
2016-11-13T03:57:48.306Z,1.87
2016-11-13T03:58:57.570Z,2.1
2016-11-13T04:00:06.182Z,2.35
2016-11-13T04:01:14.797Z,2.28
2016-11-13T04:02:24.422Z,2.22
2016-11-13T04:03:33.037Z,2.39
2016-11-13T04:04:41.655Z,2.47
2016-11-13T04:05:51.566Z,2.28
2016-11-13T04:07:00.835Z,2.1
2016-11-13T04:08:10.179Z,2.14
2016-11-13T04:09:19.121Z,2.45
2016-11-13T04:10:28.061Z,2.5
2016-11-13T04:11:36.682Z,2.57
2016-11-13T04:12:45.300Z,2.35
2016-11-13T04:13:54.284Z,2.25
2016-11-13T04:15:03.541Z,2.19
2016-11-13T04:16:12.483Z,2.45
2016-11-13T04:17:21.421Z,2.1
2016-11-13T04:18:30.362Z,2.25
2016-11-13T04:19:39.329Z,2.18
2016-11-13T04:20:48.300Z,2.03
2016-11-13T04:21:56.915Z,2.07
2016-11-13T04:23:05.529Z,1.99
2016-11-13T04:24:14.473Z,2.37
2016-11-13T04:25:23.504Z,2.12
2016-11-13T04:26:32.765Z,2.11
2016-11-13T04:27:41.706Z,2.19
2016-11-13T04:28:50.649Z,2.53
2016-11-13T04:29:59.586Z,2.1
2016-11-13T04:31:08.927Z,2.32
2016-11-13T04:32:18.192Z,2.48
2016-11-13T04:33:27.131Z,2.37
2016-11-13T04:34:35.744Z,2.51
2016-11-13T04:35:44.677Z,2.54
2016-11-13T04:36:53.991Z,2.39
2016-11-13T04:38:02.939Z,2.57
2016-11-13T04:39:11.564Z,2.29
2016-11-13T04:40:20.497Z,2.21
2016-11-13T04:41:29.433Z,2.29
2016-11-13T04:42:38.105Z,2.03
2016-11-13T04:43:46.716Z,2.06
2016-11-13T04:44:55.652Z,2.12
2016-11-13T04:46:04.603Z,2.39
2016-11-13T04:47:13.552Z,2.37
2016-11-13T04:48:22.268Z,2.32
2016-11-13T04:49:31.248Z,2.25
2016-11-13T04:50:40.180Z,2.22
2016-11-13T04:51:48.794Z,2.19
2016-11-13T04:52:57.742Z,2.01
2016-11-13T04:54:06.792Z,1.99
2016-11-13T04:55:16.394Z,2.07
2016-11-13T04:56:24.998Z,2.07
2016-11-13T04:57:34.252Z,2.17
2016-11-13T04:58:43.526Z,2.33
2016-11-13T04:59:52.201Z,2.45
2016-11-13T05:01:01.469Z,2.21
2016-11-13T05:02:10.401Z,1.89
2016-11-13T05:03:19.028Z,2.32
2016-11-13T05:04:27.636Z,2.35
2016-11-13T05:05:36.879Z,2.36
2016-11-13T05:06:45.816Z,2.54
2016-11-13T05:07:55.077Z,2.39
2016-11-13T05:09:03.700Z,2.63
2016-11-13T05:10:12.673Z,2.19
2016-11-13T05:11:21.667Z,2.07
2016-11-13T05:12:30.641Z,2.06
2016-11-13T05:13:39.593Z,2.54
2016-11-13T05:14:48.529Z,2.68
2016-11-13T05:15:57.143Z,2.36
2016-11-13T05:17:06.177Z,1.99
2016-11-13T05:18:15.115Z,1.99
2016-11-13T05:19:24.391Z,2.29
2016-11-13T05:20:33.013Z,2.01
2016-11-13T05:21:41.632Z,2.42
2016-11-13T05:22:50.918Z,2.72
2016-11-13T05:23:59.860Z,2.47
2016-11-13T05:25:08.483Z,2.53
2016-11-13T05:26:17.436Z,2.3
2016-11-13T05:27:26.696Z,2.48
2016-11-13T05:28:35.657Z,2.53
2016-11-13T05:29:44.278Z,2.58
2016-11-13T05:30:53.259Z,2.25
2016-11-13T05:32:02.854Z,2.33
2016-11-13T05:33:11.787Z,2.35
2016-11-13T05:34:21.102Z,2.07
2016-11-13T05:35:30.055Z,2.04
2016-11-13T05:36:39.319Z,2.15
2016-11-13T05:37:48.252Z,2.33
2016-11-13T05:38:57.221Z,2.32
2016-11-13T05:40:06.508Z,2.25
2016-11-13T05:41:15.763Z,2.43
2016-11-13T05:42:24.376Z,2.55
2016-11-13T05:43:33.313Z,2.53
2016-11-13T05:44:41.928Z,2.57
2016-11-13T05:45:50.933Z,2.35
2016-11-13T05:47:00.524Z,2.15
2016-11-13T05:48:09.799Z,2.29
2016-11-13T05:49:19.069Z,2.06
2016-11-13T05:50:28.342Z,2.61
2016-11-13T05:51:37.010Z,2.69
2016-11-13T05:52:46.266Z,2.58
2016-11-13T05:53:54.888Z,2.58
2016-11-13T05:55:03.510Z,2.54
2016-11-13T05:56:12.161Z,2.42
2016-11-13T05:57:21.206Z,2.6
2016-11-13T05:58:30.460Z,2.6
2016-11-13T05:59:39.400Z,2.68
2016-11-13T06:00:48.658Z,2.33
2016-11-13T06:01:57.588Z,2.57
2016-11-13T06:03:06.829Z,2.07
2016-11-13T06:04:16.767Z,2.28
2016-11-13T06:05:25.707Z,2.4
2016-11-13T06:06:34.319Z,2.3
2016-11-13T06:07:43.586Z,2.25
2016-11-13T06:08:52.931Z,2.1
2016-11-13T06:10:01.878Z,2.32
2016-11-13T06:11:10.821Z,2.39
2016-11-13T06:12:20.096Z,2.57
2016-11-13T06:13:29.036Z,2.39
2016-11-13T06:14:38.928Z,2.17
2016-11-13T06:15:47.537Z,2.39
2016-11-13T06:16:56.512Z,2.45
2016-11-13T06:18:05.451Z,2.21
2016-11-13T06:19:14.389Z,2.55
2016-11-13T06:20:23.435Z,2.29
2016-11-13T06:21:32.046Z,2.54
2016-11-13T06:22:40.998Z,2.5
2016-11-13T06:23:50.269Z,2.58
2016-11-13T06:24:58.927Z,2.37
2016-11-13T06:26:07.600Z,2.57
2016-11-13T06:27:16.549Z,2.45
2016-11-13T06:28:25.171Z,2.6
2016-11-13T06:29:34.125Z,2.72
2016-11-13T06:30:42.748Z,2.68
2016-11-13T06:31:51.669Z,2.65
2016-11-13T06:33:00.285Z,2.79
2016-11-13T06:34:09.222Z,2.81
2016-11-13T06:35:17.845Z,2.63
2016-11-13T06:36:27.124Z,2.73
2016-11-13T06:37:36.733Z,2.55
2016-11-13T06:38:45.681Z,2.66
2016-11-13T06:39:54.623Z,2.61
2016-11-13T06:41:03.570Z,2.43
2016-11-13T06:42:12.520Z,2.57
2016-11-13T06:43:21.474Z,2.54
2016-11-13T06:44:30.750Z,2.33
2016-11-13T06:45:40.013Z,2.72
2016-11-13T06:46:49.278Z,2.79
2016-11-13T06:47:58.220Z,2.91
2016-11-13T06:49:07.617Z,2.91
2016-11-13T06:50:16.565Z,2.94
2016-11-13T06:51:25.842Z,2.66
2016-11-13T06:52:35.443Z,2.81
2016-11-13T06:53:44.715Z,2.47
2016-11-13T06:54:54.029Z,2.53
2016-11-13T06:56:03.296Z,2.71
2016-11-13T06:57:12.274Z,2.28
2016-11-13T06:58:21.216Z,2.39
2016-11-13T06:59:30.481Z,2.58
2016-11-13T07:00:40.362Z,2.36
2016-11-13T07:01:49.311Z,2.54
2016-11-13T07:02:57.929Z,2.22
2016-11-13T07:04:07.194Z,2.06
2016-11-13T07:05:16.137Z,2.3
2016-11-13T07:06:25.129Z,2.11
2016-11-13T07:07:33.755Z,2.35
2016-11-13T07:08:42.701Z,2.55
2016-11-13T07:09:51.636Z,2.47
2016-11-13T07:11:00.904Z,2
2016-11-13T07:12:10.149Z,2.25
2016-11-13T07:13:19.415Z,2.58
2016-11-13T07:14:28.039Z,2.84
2016-11-13T07:15:36.986Z,2.45
2016-11-13T07:16:45.598Z,2.29
2016-11-13T07:17:54.512Z,2.04
2016-11-13T07:19:03.442Z,2.24
2016-11-13T07:20:12.379Z,2.57
2016-11-13T07:21:21.328Z,2.42
2016-11-13T07:22:30.263Z,2.6
2016-11-13T07:23:38.982Z,2.72
2016-11-13T07:24:48.238Z,2.63
2016-11-13T07:25:57.512Z,2.9
2016-11-13T07:27:06.788Z,2.69
2016-11-13T07:28:15.414Z,2.78
2016-11-13T07:29:24.086Z,2.73
2016-11-13T07:30:33.343Z,2.42
2016-11-13T07:31:41.960Z,2.51
2016-11-13T07:32:51.232Z,2.69
2016-11-13T07:34:00.172Z,2.72
2016-11-13T07:35:09.114Z,2.5
2016-11-13T07:36:18.054Z,2.68
2016-11-13T07:37:27.000Z,3.02
2016-11-13T07:38:36.275Z,2.6
2016-11-13T07:39:44.898Z,2.81
2016-11-13T07:40:53.509Z,2.79
2016-11-13T07:42:02.462Z,2.87
2016-11-13T07:43:11.089Z,2.78
2016-11-13T07:44:20.016Z,2.61
2016-11-13T07:45:28.962Z,2.71
2016-11-13T07:46:37.680Z,2.76
2016-11-13T07:47:46.625Z,2.57
2016-11-13T07:48:56.209Z,2.65
2016-11-13T07:50:05.472Z,2.99
2016-11-13T07:51:15.050Z,3.14
2016-11-13T07:52:23.761Z,2.75
2016-11-13T07:53:32.715Z,2.91
2016-11-13T07:54:41.330Z,2.82
2016-11-13T07:55:50.582Z,2.9
2016-11-13T07:56:59.839Z,2.72
2016-11-13T07:58:08.501Z,2.68
2016-11-13T07:59:18.100Z,2.89
2016-11-13T08:00:27.038Z,3.17
2016-11-13T08:01:35.647Z,2.79
2016-11-13T08:02:44.596Z,2.68
2016-11-13T08:03:53.307Z,2.76
2016-11-13T08:05:02.933Z,2.79
2016-11-13T08:06:11.878Z,3.04
2016-11-13T08:07:20.503Z,3.08
2016-11-13T08:08:29.490Z,3.22
2016-11-13T08:09:39.097Z,3.3
2016-11-13T08:10:48.416Z,3.41
2016-11-13T08:11:57.350Z,2.75
2016-11-13T08:13:05.972Z,3.08
2016-11-13T08:14:14.926Z,3.25
2016-11-13T08:15:23.944Z,2.73
2016-11-13T08:16:32.562Z,2.91
2016-11-13T08:17:41.181Z,3.05
2016-11-13T08:18:50.783Z,3.05
2016-11-13T08:20:00.079Z,3.23
2016-11-13T08:21:08.754Z,3.05
2016-11-13T08:22:17.365Z,2.68
2016-11-13T08:23:26.308Z,3.08
2016-11-13T08:24:35.577Z,3.11
2016-11-13T08:25:44.195Z,3.17
2016-11-13T08:26:53.481Z,3.09
2016-11-13T08:28:02.754Z,3.25
2016-11-13T08:29:12.024Z,2.79
2016-11-13T08:30:20.968Z,2.71
2016-11-13T08:31:29.900Z,3.29
2016-11-13T08:32:38.906Z,3.54
2016-11-13T08:33:48.163Z,3.46
2016-11-13T08:34:57.439Z,3.42
2016-11-13T08:36:06.389Z,3.45
2016-11-13T08:37:15.664Z,3.62
2016-11-13T08:38:25.575Z,3.32
2016-11-13T08:39:34.853Z,3.29
2016-11-13T08:40:43.792Z,3.17
2016-11-13T08:41:52.408Z,3.12
2016-11-13T08:43:01.674Z,2.71
2016-11-13T08:44:10.290Z,3.02
2016-11-13T08:45:19.242Z,3.08
2016-11-13T08:46:28.176Z,3.07
2016-11-13T08:47:37.441Z,3.05
2016-11-13T08:48:46.059Z,2.86
2016-11-13T08:49:55.347Z,2.96
2016-11-13T08:51:03.959Z,2.89
2016-11-13T08:52:12.911Z,2.79
2016-11-13T08:53:22.180Z,3.14
2016-11-13T08:54:31.135Z,3.17
2016-11-13T08:55:40.375Z,2.81
2016-11-13T08:56:48.994Z,3.07
2016-11-13T08:57:57.604Z,3.04
2016-11-13T08:59:06.545Z,3.48
2016-11-13T09:00:15.202Z,3.45
2016-11-13T09:01:24.250Z,3.22
2016-11-13T09:02:33.203Z,3.46
2016-11-13T09:03:41.823Z,3.48
2016-11-13T09:04:50.763Z,3.44
2016-11-13T09:06:00.354Z,3.49
2016-11-13T09:07:09.652Z,3.41
2016-11-13T09:08:18.941Z,3.25
2016-11-13T09:09:27.560Z,3.11
2016-11-13T09:10:36.490Z,3.52
2016-11-13T09:11:45.765Z,3.8
2016-11-13T09:12:54.814Z,3.23
2016-11-13T09:14:03.431Z,3.08
2016-11-13T09:15:12.050Z,3.49
2016-11-13T09:16:21.404Z,3.32
2016-11-13T09:17:30.674Z,3.6
2016-11-13T09:18:40.012Z,3.85
2016-11-13T09:19:48.624Z,3.9
2016-11-13T09:20:57.231Z,4.13
2016-11-13T09:22:06.497Z,3.85
2016-11-13T09:23:15.806Z,4.13
2016-11-13T09:24:25.394Z,3.84
2016-11-13T09:25:34.907Z,3.85
2016-11-13T09:26:43.909Z,4
2016-11-13T09:27:53.176Z,4.2
2016-11-13T09:29:02.123Z,4.3
2016-11-13T09:30:11.762Z,3.69
2016-11-13T09:31:20.708Z,3.78
2016-11-13T09:32:29.336Z,3.98
2016-11-13T09:33:38.319Z,4.05
2016-11-13T09:34:47.303Z,4.05
2016-11-13T09:35:56.645Z,4.34
2016-11-13T09:37:05.597Z,4.45
2016-11-13T09:38:14.908Z,4.26
2016-11-13T09:39:24.184Z,4.05
2016-11-13T09:40:32.805Z,3.37
2016-11-13T09:41:41.438Z,3.44
2016-11-13T09:42:50.066Z,3.3
2016-11-13T09:43:59.011Z,3.49
2016-11-13T09:45:07.635Z,3.8
2016-11-13T09:46:16.568Z,3.29
2016-11-13T09:47:26.217Z,3.7
2016-11-13T09:48:35.159Z,4.27
2016-11-13T09:49:44.442Z,4.1
2016-11-13T09:50:53.053Z,4.17
2016-11-13T09:52:01.990Z,3.87
2016-11-13T09:53:10.610Z,3.72
2016-11-13T09:54:19.870Z,3.7
2016-11-13T09:55:29.144Z,3.44
2016-11-13T09:56:38.086Z,3.59
2016-11-13T09:57:47.020Z,3.84
2016-11-13T09:58:56.320Z,3.49
2016-11-13T10:00:05.597Z,3.29
2016-11-13T10:01:14.215Z,3.32
2016-11-13T10:02:23.803Z,3.8
2016-11-13T10:03:32.427Z,3.92
2016-11-13T10:04:41.736Z,3.84
2016-11-13T10:05:50.676Z,3.88
2016-11-13T10:06:59.293Z,3.84
2016-11-13T10:08:08.233Z,3.59
2016-11-13T10:09:17.840Z,3.64
2016-11-13T10:10:27.405Z,3.85
2016-11-13T10:11:36.682Z,4.13
2016-11-13T10:12:45.626Z,4.17
2016-11-13T10:13:54.575Z,4.38
2016-11-13T10:15:03.523Z,4.16
2016-11-13T10:16:12.553Z,3.64
2016-11-13T10:17:21.811Z,3.74
2016-11-13T10:18:30.430Z,3.78
2016-11-13T10:19:39.044Z,3.7
2016-11-13T10:20:47.996Z,3.73
2016-11-13T10:21:57.623Z,3.87
2016-11-13T10:23:06.890Z,3.81
2016-11-13T10:24:15.510Z,3.55
2016-11-13T10:25:24.450Z,3.96
2016-11-13T10:26:33.391Z,4.18
2016-11-13T10:27:42.660Z,3.7
2016-11-13T10:28:51.274Z,3.64
2016-11-13T10:30:00.544Z,3.52
2016-11-13T10:31:09.489Z,3.85
2016-11-13T10:32:18.433Z,3.84
2016-11-13T10:33:27.242Z,4.08
2016-11-13T10:34:35.859Z,4.27
2016-11-13T10:35:45.671Z,4.36
2016-11-13T10:36:55.342Z,3.62
2016-11-13T10:38:03.988Z,3.85
2016-11-13T10:39:13.033Z,3.92
2016-11-13T10:40:22.633Z,3.76
2016-11-13T10:41:31.902Z,4.03
2016-11-13T10:42:41.174Z,3.87
2016-11-13T10:43:50.121Z,4.03
2016-11-13T10:44:59.047Z,3.91
2016-11-13T10:46:07.664Z,3.94
2016-11-13T10:47:16.925Z,3.96
2016-11-13T10:48:26.197Z,4.02
2016-11-13T10:49:34.823Z,3.98
2016-11-13T10:50:43.856Z,3.72
2016-11-13T10:51:52.475Z,3.96
2016-11-13T10:53:01.420Z,4.45
2016-11-13T10:54:10.674Z,4.42
2016-11-13T10:55:19.623Z,4.26
2016-11-13T10:56:29.238Z,4.1
2016-11-13T10:57:38.176Z,4.27
2016-11-13T10:58:47.128Z,4.23
2016-11-13T10:59:56.078Z,4.27
2016-11-13T11:01:05.338Z,4.48
2016-11-13T11:02:14.279Z,4.6
2016-11-13T11:03:23.217Z,4.34
2016-11-13T11:04:32.492Z,4.43
2016-11-13T11:05:41.437Z,4.83
2016-11-13T11:06:50.738Z,4.08
2016-11-13T11:07:59.977Z,4.13
2016-11-13T11:09:09.002Z,4.57
2016-11-13T11:10:18.592Z,4.94
2016-11-13T11:11:27.214Z,4.67
2016-11-13T11:12:36.157Z,4.59
2016-11-13T11:13:46.094Z,3.82
2016-11-13T11:14:55.043Z,4.08
2016-11-13T11:16:04.633Z,4.26
2016-11-13T11:17:13.571Z,4.61
2016-11-13T11:18:22.512Z,4.54
2016-11-13T11:19:31.798Z,4.17
2016-11-13T11:20:41.059Z,4.12
2016-11-13T11:21:50.333Z,3.98
2016-11-13T11:22:58.959Z,3.94
2016-11-13T11:24:07.582Z,4.18
2016-11-13T11:25:16.646Z,3.99
2016-11-13T11:26:25.618Z,4.24
2016-11-13T11:27:34.312Z,4.27
2016-11-13T11:28:43.612Z,4.21
2016-11-13T11:29:52.553Z,4.24
2016-11-13T11:31:01.592Z,4.6
2016-11-13T11:32:10.215Z,4.89
2016-11-13T11:33:18.828Z,4.2
2016-11-13T11:34:27.456Z,3.98
2016-11-13T11:35:36.068Z,4.16
2016-11-13T11:36:45.416Z,4.61
2016-11-13T11:37:54.363Z,4.72
2016-11-13T11:39:03.307Z,4.86
2016-11-13T11:40:12.257Z,4.56
2016-11-13T11:41:20.884Z,4.6
2016-11-13T11:42:30.516Z,4.77
2016-11-13T11:43:39.138Z,4.43
2016-11-13T11:44:48.077Z,4.31
2016-11-13T11:45:56.703Z,4.26
2016-11-13T11:47:05.649Z,4.27
2016-11-13T11:48:15.300Z,3.8
2016-11-13T11:49:24.589Z,4.61
2016-11-13T11:50:33.549Z,4.63
2016-11-13T11:51:42.496Z,4.16
2016-11-13T11:52:51.448Z,3.91
2016-11-13T11:54:00.731Z,3.85
2016-11-13T11:55:09.345Z,3.84
2016-11-13T11:56:18.605Z,3.9
2016-11-13T11:57:27.889Z,4.13
2016-11-13T11:58:36.834Z,4.43
2016-11-13T11:59:45.882Z,4.91
2016-11-13T12:00:54.828Z,4.75
2016-11-13T12:02:03.771Z,4.35
2016-11-13T12:03:12.381Z,3.8
2016-11-13T12:04:20.998Z,4.16
2016-11-13T12:05:30.764Z,4.13
2016-11-13T12:06:39.711Z,4.08
2016-11-13T12:07:48.657Z,4.2
2016-11-13T12:08:57.611Z,4.16
2016-11-13T12:10:06.900Z,4.38
2016-11-13T12:11:16.189Z,4.43
2016-11-13T12:12:25.449Z,4.38
2016-11-13T12:13:34.392Z,4.77
2016-11-13T12:14:43.677Z,4.35
2016-11-13T12:15:52.628Z,4.2
2016-11-13T12:17:01.574Z,3.96
2016-11-13T12:18:10.241Z,3.55
2016-11-13T12:19:19.191Z,3.85
2016-11-13T12:20:27.811Z,3.8
2016-11-13T12:21:36.432Z,3.87
2016-11-13T12:22:45.765Z,3.62
2016-11-13T12:23:54.728Z,3.54
2016-11-13T12:25:04.026Z,3.82
2016-11-13T12:26:13.304Z,3.64
2016-11-13T12:27:21.925Z,4.03
2016-11-13T12:28:30.944Z,3.45
2016-11-13T12:29:39.894Z,3.55
2016-11-13T12:30:48.831Z,3.87
2016-11-13T12:31:57.782Z,4.06
2016-11-13T12:33:06.733Z,4.26
2016-11-13T12:34:15.650Z,4.34
2016-11-13T12:35:24.266Z,4.17
2016-11-13T12:36:33.214Z,4.49
2016-11-13T12:37:42.157Z,4.64
2016-11-13T12:38:51.105Z,4.28
2016-11-13T12:40:00.406Z,4.1
2016-11-13T12:41:09.342Z,3.91
2016-11-13T12:42:18.292Z,4.02
2016-11-13T12:43:27.250Z,4.17
2016-11-13T12:44:35.859Z,4.26
2016-11-13T12:45:44.581Z,4.26
2016-11-13T12:46:53.203Z,4.1
2016-11-13T12:48:01.825Z,4.27
2016-11-13T12:49:10.440Z,4.35
2016-11-13T12:50:19.712Z,4.34
2016-11-13T12:51:28.665Z,4.38
2016-11-13T12:52:37.287Z,4.78
2016-11-13T12:53:46.552Z,4.77
2016-11-13T12:54:55.165Z,4.77
2016-11-13T12:56:04.106Z,4.31
2016-11-13T12:57:13.342Z,3.84
2016-11-13T12:58:22.275Z,4.28
2016-11-13T12:59:31.555Z,3.99
2016-11-13T13:00:40.508Z,4.09
2016-11-13T13:01:49.136Z,4.27
2016-11-13T13:02:59.079Z,4.26
2016-11-13T13:04:08.355Z,4.59
2016-11-13T13:05:17.621Z,4.88
2016-11-13T13:06:26.923Z,4.89
2016-11-13T13:07:35.546Z,4.94
2016-11-13T13:08:44.270Z,5.06
2016-11-13T13:09:53.540Z,5.39
2016-11-13T13:11:02.478Z,4.96
2016-11-13T13:12:11.110Z,5.19
2016-11-13T13:13:20.389Z,5.16
2016-11-13T13:14:29.386Z,4.78
2016-11-13T13:15:37.994Z,4.53
2016-11-13T13:16:46.978Z,4.88
2016-11-13T13:17:55.933Z,4.75
2016-11-13T13:19:05.204Z,4.78
2016-11-13T13:20:13.823Z,4.28
2016-11-13T13:21:22.768Z,4.51
2016-11-13T13:22:31.380Z,4.64
2016-11-13T13:23:40.330Z,4.16
2016-11-13T13:24:49.269Z,4.48
2016-11-13T13:25:58.230Z,4.74
2016-11-13T13:27:06.841Z,4.98
2016-11-13T13:28:15.474Z,4.16
2016-11-13T13:29:24.099Z,3.96
2016-11-13T13:30:33.046Z,4.26
2016-11-13T13:31:42.632Z,3.94
2016-11-13T13:32:51.258Z,3.99
2016-11-13T13:33:59.881Z,4.12
2016-11-13T13:35:08.833Z,3.98
2016-11-13T13:36:17.764Z,4.28
2016-11-13T13:37:27.133Z,4.34
2016-11-13T13:38:36.416Z,4.21
2016-11-13T13:39:45.360Z,4.46
2016-11-13T13:40:54.953Z,4.57
2016-11-13T13:42:03.895Z,4.46
2016-11-13T13:43:13.256Z,4.27
2016-11-13T13:44:22.197Z,4.49
2016-11-13T13:45:30.825Z,4.57
2016-11-13T13:46:40.099Z,4.78
2016-11-13T13:47:48.725Z,5
2016-11-13T13:48:57.668Z,4.45
2016-11-13T13:50:06.614Z,4.42
2016-11-13T13:51:15.233Z,4.53
2016-11-13T13:52:24.178Z,4.74
2016-11-13T13:53:32.787Z,4.83
2016-11-13T13:54:42.355Z,4.28
2016-11-13T13:55:51.304Z,4.31
2016-11-13T13:56:59.933Z,4.53
2016-11-13T13:58:08.560Z,4.49
2016-11-13T13:59:17.192Z,4.45
2016-11-13T14:00:26.439Z,4.21
2016-11-13T14:01:35.711Z,4.1
2016-11-13T14:02:44.968Z,4.18
2016-11-13T14:03:54.235Z,4.45
2016-11-13T14:05:03.826Z,4.64
2016-11-13T14:06:13.217Z,4.34
2016-11-13T14:07:21.837Z,4.46
2016-11-13T14:08:30.455Z,4.34
2016-11-13T14:09:39.391Z,4.54
2016-11-13T14:10:48.332Z,4.26
2016-11-13T14:11:57.626Z,4.3
2016-11-13T14:13:06.573Z,4.59
2016-11-13T14:14:15.519Z,4.74
2016-11-13T14:15:25.116Z,4.67
2016-11-13T14:16:34.070Z,4.69
2016-11-13T14:17:43.348Z,4.64
2016-11-13T14:18:51.965Z,4.46
2016-11-13T14:20:00.571Z,4.61
2016-11-13T14:21:09.509Z,4.67
2016-11-13T14:22:19.500Z,4.57
2016-11-13T14:23:28.442Z,4.18
2016-11-13T14:24:37.716Z,4.3
2016-11-13T14:25:46.333Z,4.3
2016-11-13T14:26:55.754Z,4.12
2016-11-13T14:28:05.019Z,4.39
2016-11-13T14:29:14.959Z,4.35
2016-11-13T14:30:23.572Z,4.2
2016-11-13T14:31:32.517Z,4.3
2016-11-13T14:32:41.458Z,4.3
2016-11-13T14:33:50.715Z,4.39
2016-11-13T14:34:59.634Z,3.98
2016-11-13T14:36:08.916Z,4.18
2016-11-13T14:37:18.181Z,3.81
2016-11-13T14:38:27.124Z,4.12
2016-11-13T14:39:36.098Z,4.36
2016-11-13T14:40:44.715Z,4.23
2016-11-13T14:41:54.317Z,4.34
2016-11-13T14:43:03.266Z,4.31
2016-11-13T14:44:12.210Z,4.31
2016-11-13T14:45:21.148Z,4.18
2016-11-13T14:46:30.397Z,4
2016-11-13T14:47:39.701Z,3.87
2016-11-13T14:48:48.316Z,3.91
2016-11-13T14:49:57.898Z,4.31
2016-11-13T14:51:07.163Z,4.35
2016-11-13T14:52:16.159Z,4.3
2016-11-13T14:53:25.112Z,4.59
2016-11-13T14:54:34.046Z,4.23
2016-11-13T14:55:43.303Z,4.13
2016-11-13T14:56:52.250Z,3.92
2016-11-13T14:58:01.905Z,3.98
2016-11-13T14:59:10.526Z,4.2
2016-11-13T15:00:19.795Z,4.09
2016-11-13T15:01:28.410Z,4.23
2016-11-13T15:02:37.669Z,4.16
2016-11-13T15:03:46.295Z,3.99
2016-11-13T15:04:54.912Z,4.17
2016-11-13T15:06:04.176Z,3.99
2016-11-13T15:07:13.117Z,3.99
2016-11-13T15:08:22.736Z,3.82
2016-11-13T15:09:32.009Z,4
2016-11-13T15:10:40.679Z,3.64
2016-11-13T15:11:50.271Z,3.62
2016-11-13T15:12:59.528Z,4.18
2016-11-13T15:14:09.131Z,4.13
2016-11-13T15:15:17.795Z,3.99
2016-11-13T15:16:26.740Z,4.28
2016-11-13T15:17:35.720Z,4.18
2016-11-13T15:18:44.656Z,4.17
2016-11-13T15:19:53.600Z,4.02
2016-11-13T15:21:02.864Z,3.82
2016-11-13T15:22:12.126Z,3.9
2016-11-13T15:23:21.099Z,4